Time;durP1;ratioP1;P1;durP2;ratioP2;P2;SDS_P1;SDS_P2;PMS_P1;PMS_P2;Temp;Humidity;BMP_temperature;BMP_pressure;BME280_temperature;BME280_humidity;BME280_pressure;Samples;Min_cycle;Max_cycle;Signal;HPM_P1;HPM_P2
2023/05/12 00:04:05;;;;;;;7.30;3.03;;;;;;;14.19;48.69;97686.69;10584552;28;20111;-67
2023/05/12 00:09:26;;;;;;;5.32;2.63;;;;;;;14.16;48.70;97690.72;10584133;28;20554;-67
2023/05/12 00:14:47;;;;;;;4.10;2.50;;;;;;;14.18;48.85;97690.81;10584042;28;20488;-67
2023/05/12 00:20:08;;;;;;;8.07;3.13;;;;;;;14.13;48.90;97689.16;10584576;28;20504;-67
2023/05/12 00:25:29;;;;;;;6.18;2.80;;;;;;;14.10;48.93;97679.19;10584547;28;20401;-66
2023/05/12 00:30:49;;;;;;;4.63;2.63;;;;;;;14.07;48.92;97683.22;10583653;28;20500;-67
2023/05/12 00:36:10;;;;;;;7.50;2.88;;;;;;;13.91;49.09;97681.03;10583043;28;20549;-67
2023/05/12 00:41:31;;;;;;;4.82;3.00;;;;;;;13.76;49.52;97681.59;10584044;28;20118;-67
2023/05/12 00:46:51;;;;;;;6.28;3.30;;;;;;;13.68;49.90;97684.69;10583700;28;20396;-66
2023/05/12 00:52:12;;;;;;;7.22;3.30;;;;;;;13.64;49.95;97686.56;10567623;28;20525;-67
2023/05/12 00:57:33;;;;;;;9.52;3.20;;;;;;;13.51;50.70;97687.22;10583130;28;20481;-67
2023/05/12 01:02:57;;;;;;;6.13;3.53;;;;;;;13.39;50.37;97690.09;10583229;28;20043;-67
2023/05/12 01:08:20;;;;;;;6.35;3.45;;;;;;;13.28;50.70;97691.59;10568536;28;20104;-66
2023/05/12 01:13:41;;;;;;;5.93;3.50;;;;;;;13.18;50.62;97688.94;10553520;28;20048;-67
2023/05/12 01:19:04;;;;;;;8.50;3.22;;;;;;;13.01;51.99;97685.81;10567405;28;20448;-67
2023/05/12 01:24:25;;;;;;;7.28;3.58;;;;;;;12.89;52.09;97695.00;10581431;28;20039;-67
2023/05/12 01:29:46;;;;;;;5.95;3.22;;;;;;;12.81;51.98;97691.72;10567165;28;20429;-67
2023/05/12 01:35:09;;;;;;;8.00;3.73;;;;;;;12.73;53.02;97691.25;10580916;28;20035;-67
2023/05/12 01:40:34;;;;;;;7.55;3.45;;;;;;;12.67;52.52;97699.31;10580933;28;20123;-67
2023/05/12 01:45:55;;;;;;;5.30;2.83;;;;;;;12.50;52.54;97708.09;10566915;28;20409;-67
2023/05/12 01:51:16;;;;;;;4.07;3.05;;;;;;;12.28;53.03;97705.44;10580733;28;20106;-66
2023/05/12 01:56:37;;;;;;;6.65;3.63;;;;;;;12.18;53.54;97710.41;10582392;28;20110;-66
2023/05/12 02:01:57;;;;;;;8.90;3.47;;;;;;;12.12;53.25;97715.63;10566798;28;20106;-67
2023/05/12 02:07:22;;;;;;;6.63;3.83;;;;;;;12.11;53.57;97730.97;10589327;28;20404;-67
2023/05/12 02:12:43;;;;;;;6.20;3.60;;;;;;;12.11;53.29;97721.84;10589292;28;20115;-66
2023/05/12 02:18:04;;;;;;;8.57;3.53;;;;;;;12.18;53.93;97723.69;10574655;28;20040;-67
2023/05/12 02:23:25;;;;;;;5.95;3.30;;;;;;;12.21;54.01;97728.78;10589715;28;20485;-67
2023/05/12 02:28:46;;;;;;;5.18;2.42;;;;;;;12.19;53.79;97730.75;10574121;28;20119;-67
2023/05/12 02:34:07;;;;;;;5.43;2.95;;;;;;;12.05;53.91;97730.59;10588713;28;20111;-67
2023/05/12 02:39:28;;;;;;;6.13;3.22;;;;;;;11.98;54.43;97729.50;10587849;28;20031;-67
2023/05/12 02:44:49;;;;;;;7.22;3.50;;;;;;;11.84;54.89;97737.00;10587882;28;20114;-66
2023/05/12 02:50:10;;;;;;;7.07;2.83;;;;;;;11.73;54.95;97730.00;10573021;28;20044;-66
2023/05/12 02:55:31;;;;;;;6.35;2.83;;;;;;;11.66;55.12;97730.97;10572911;28;20043;-67
2023/05/12 03:00:51;;;;;;;5.25;3.10;;;;;;;11.63;55.54;97723.78;10572930;28;20114;-66
2023/05/12 03:06:29;;;;;;;5.50;3.40;;;;;;;11.56;55.84;97730.31;10586713;28;20104;-67
2023/05/12 03:11:49;;;;;;;5.75;3.20;;;;;;;11.54;55.62;97730.19;10558327;28;20153;-66
2023/05/12 03:17:10;;;;;;;4.68;2.83;;;;;;;11.50;55.37;97720.84;10556974;28;20119;-67
2023/05/12 03:22:31;;;;;;;7.72;2.65;;;;;;;11.46;55.75;97726.88;10572048;28;20119;-67
2023/05/12 03:27:51;;;;;;;4.40;2.53;;;;;;;11.44;55.79;97726.75;10586106;28;20557;-67
2023/05/12 03:33:12;;;;;;;3.65;2.45;;;;;;;11.50;55.85;97726.44;10585762;28;20189;-67
2023/05/12 03:38:33;;;;;;;6.18;3.30;;;;;;;11.58;55.46;97736.06;10586572;28;20063;-66
2023/05/12 03:43:54;;;;;;;3.92;2.83;;;;;;;11.62;55.76;97727.19;10586851;28;20165;-67
2023/05/12 03:49:14;;;;;;;4.28;2.40;;;;;;;11.76;56.10;97742.06;10571009;28;20117;-67
2023/05/12 03:54:35;;;;;;;4.22;2.85;;;;;;;11.97;56.12;97744.09;10585296;28;20111;-67
2023/05/12 03:59:58;;;;;;;4.82;2.60;;;;;;;12.28;55.67;97739.03;10556753;28;20043;-67
2023/05/12 04:05:18;;;;;;;5.28;2.67;;;;;;;12.65;55.46;97741.22;10570310;28;20126;-67
2023/05/12 04:10:39;;;;;;;6.53;2.88;;;;;;;12.84;55.16;97738.13;10584320;28;20568;-66
2023/05/12 04:16:00;;;;;;;6.03;3.13;;;;;;;13.04;54.78;97743.47;10569948;28;20115;-67
2023/05/12 04:21:22;;;;;;;5.75;2.88;;;;;;;13.20;54.85;97754.88;10583758;28;20043;-67
2023/05/12 04:26:42;;;;;;;7.72;2.97;;;;;;;13.57;54.44;97760.50;10555244;28;20071;-67
2023/05/12 04:32:03;;;;;;;5.70;3.10;;;;;;;14.04;54.00;97763.78;10583258;28;20133;-67
2023/05/12 04:37:25;;;;;;;9.63;3.63;;;;;;;14.56;52.66;97771.50;10583115;28;20044;-67
2023/05/12 04:42:46;;;;;;;7.72;4.03;;;;;;;14.91;51.81;97773.28;10582826;28;20039;-67
2023/05/12 04:48:08;;;;;;;7.35;3.75;;;;;;;15.40;50.41;97781.34;10568553;28;20063;-67
2023/05/12 04:53:33;;;;;;;3.80;2.70;;;;;;;15.99;49.12;97781.38;10582726;28;20040;-67
2023/05/12 04:58:54;;;;;;;6.07;2.80;;;;;;;16.36;47.64;97783.06;10555056;28;20040;-67
2023/05/12 05:04:15;;;;;;;4.25;2.08;;;;;;;16.38;46.18;97780.34;10568172;28;20032;-68
2023/05/12 05:09:37;;;;;;;4.03;2.20;;;;;;;16.68;45.90;97786.59;10567742;28;20048;-67
2023/05/12 05:14:58;;;;;;;7.50;2.50;;;;;;;17.08;44.28;97793.31;10581842;28;20039;-68
2023/05/12 05:20:19;;;;;;;3.17;2.13;;;;;;;17.36;43.40;97794.50;10567497;28;20110;-67
2023/05/12 05:25:40;;;;;;;4.85;2.72;;;;;;;17.60;42.60;97791.25;10581478;28;20040;-68
2023/05/12 05:31:02;;;;;;;4.68;2.63;;;;;;;18.10;41.75;97800.31;10581355;28;20059;-67
2023/05/12 05:36:26;;;;;;;8.77;3.17;;;;;;;18.82;40.92;97796.69;10582310;28;20115;-67
2023/05/12 05:41:51;;;;;;;6.78;2.97;;;;;;;19.22;40.57;97785.34;10581514;28;20044;-67
2023/05/12 05:47:12;;;;;;;6.38;2.63;;;;;;;19.63;39.43;97804.44;10581638;28;20067;-66
2023/05/12 05:52:34;;;;;;;4.47;2.50;;;;;;;19.95;38.84;97806.88;10581287;28;20044;-67
2023/05/12 05:57:57;;;;;;;6.20;1.87;;;;;;;19.76;38.55;97816.88;10580587;28;20043;-67
2023/05/12 06:03:18;;;;;;;4.95;1.77;;;;;;;20.16;38.48;97823.13;10566606;28;20111;-67
2023/05/12 06:08:40;;;;;;;3.35;2.00;;;;;;;20.54;37.81;97820.03;10566757;28;20378;-66
2023/05/12 06:14:01;;;;;;;4.00;1.90;;;;;;;20.78;37.13;97832.09;10580942;28;20118;-67
2023/05/12 06:19:22;;;;;;;2.05;1.65;;;;;;;20.84;36.95;97835.13;10580999;28;20211;-67
2023/05/12 06:24:43;;;;;;;5.13;1.83;;;;;;;21.07;36.61;97847.09;10552217;28;20039;-66
2023/05/12 06:30:05;;;;;;;4.95;1.42;;;;;;;20.87;37.22;97847.25;10580210;28;20055;-67
2023/05/12 06:35:26;;;;;;;4.45;1.52;;;;;;;21.64;36.25;97848.63;10579623;28;20404;-67
2023/05/12 06:40:46;;;;;;;3.50;1.77;;;;;;;21.15;36.16;97853.00;10580532;28;20550;-67
2023/05/12 06:46:07;;;;;;;5.82;1.52;;;;;;;21.37;36.37;97850.78;10566071;28;20504;-67
2023/05/12 06:51:28;;;;;;;4.53;1.73;;;;;;;21.76;35.77;97839.69;10582267;28;20096;-67
2023/05/12 06:56:49;;;;;;;5.55;1.65;;;;;;;22.31;35.12;97850.28;10587079;28;20071;-66
2023/05/12 07:02:10;;;;;;;5.65;1.70;;;;;;;23.22;32.82;97856.50;10586696;28;20040;-67
2023/05/12 07:07:31;;;;;;;2.55;1.30;;;;;;;23.94;31.55;97859.25;10587539;28;20481;-67
2023/05/12 07:12:51;;;;;;;2.75;1.33;;;;;;;25.22;29.76;97855.38;10586657;28;20039;-67
2023/05/12 07:18:13;;;;;;;4.20;1.60;;;;;;;25.25;29.02;97853.97;10585988;28;20047;-67
2023/05/12 07:23:33;;;;;;;4.05;1.80;;;;;;;27.23;26.36;97858.38;10586990;28;20485;-66
2023/05/12 07:28:54;;;;;;;2.00;1.38;;;;;;;28.07;25.03;97859.22;10586780;28;20039;-67
2023/05/12 07:34:15;;;;;;;1.92;1.30;;;;;;;29.94;23.00;97870.13;10585668;28;20590;-67
2023/05/12 07:39:37;;;;;;;4.10;1.20;;;;;;;30.17;21.79;97862.03;10584942;28;20050;-67
2023/05/12 07:44:58;;;;;;;2.47;1.17;;;;;;;31.91;20.34;97861.47;10585282;28;20040;-67
2023/05/12 07:50:20;;;;;;;1.52;1.10;;;;;;;33.48;18.65;97870.84;10585831;28;20071;-67
2023/05/12 07:55:42;;;;;;;6.72;1.40;;;;;;;32.04;20.03;97876.41;10570360;28;20051;-66
2023/05/12 08:01:05;;;;;;;8.20;1.92;;;;;;;32.53;19.51;97872.75;10585269;28;20051;-67
2023/05/12 08:06:26;;;;;;;8.05;2.00;;;;;;;34.14;17.83;97875.88;10584138;28;20043;-67
2023/05/12 08:11:48;;;;;;;4.15;1.52;;;;;;;35.48;17.54;97862.88;10583950;28;20070;-68
2023/05/12 08:17:11;;;;;;;9.35;1.85;;;;;;;33.71;18.49;97868.19;10569865;28;20043;-67
2023/05/12 08:22:32;;;;;;;5.57;1.38;;;;;;;32.31;18.30;97873.81;10583742;28;20047;-67
2023/05/12 08:27:53;;;;;;;2.63;1.38;;;;;;;34.32;17.48;97884.09;10583559;28;20090;-67
2023/05/12 08:33:14;;;;;;;2.45;1.33;;;;;;;35.10;15.47;97893.69;10568810;28;20397;-67
2023/05/12 08:38:34;;;;;;;2.20;1.10;;;;;;;33.62;16.46;97884.31;10568767;28;20035;-67
2023/05/12 08:43:56;;;;;;;5.10;1.50;;;;;;;32.46;17.10;97878.63;10582638;28;20067;-67
2023/05/12 08:49:19;;;;;;;2.57;1.10;;;;;;;27.85;21.12;97880.03;10582587;28;20043;-67
2023/05/12 08:54:42;;;;;;;5.13;1.60;;;;;;;28.10;22.74;97878.63;10582218;28;20035;-67
2023/05/12 09:00:17;;;;;;;2.63;1.35;;;;;;;28.52;21.27;97888.66;10582726;28;20119;-66
2023/05/12 09:05:38;;;;;;;2.85;1.45;;;;;;;26.77;23.41;97893.94;10582422;28;20043;-66
2023/05/12 09:10:59;;;;;;;3.72;1.70;;;;;;;26.10;24.69;97882.00;10581625;28;20052;-67
2023/05/12 09:16:24;;;;;;;3.92;1.45;;;;;;;25.12;26.64;97883.81;10581134;28;20474;-68
2023/05/12 09:21:45;;;;;;;3.97;1.30;;;;;;;27.81;22.07;97886.47;10567694;28;20092;-67
2023/05/12 09:27:08;;;;;;;6.32;1.50;;;;;;;26.99;23.67;97876.84;10581641;28;20478;-67
2023/05/12 09:32:33;;;;;;;2.08;1.15;;;;;;;27.01;23.33;97896.91;10581231;28;20052;-67
2023/05/12 09:37:55;;;;;;;6.10;1.42;;;;;;;26.05;24.14;97909.09;10581774;28;20039;-66
2023/05/12 09:43:18;;;;;;;3.72;1.60;;;;;;;25.56;24.40;97885.72;10581534;28;20052;-67
2023/05/12 09:48:39;;;;;;;2.83;1.25;;;;;;;23.37;26.84;97903.78;10581599;28;20119;-67
2023/05/12 09:54:01;;;;;;;4.00;1.60;;;;;;;22.44;28.42;97894.66;10582033;28;20040;-67
2023/05/12 09:59:29;;;;;;;4.00;1.27;;;;;;;22.11;29.29;97900.97;10581642;28;20545;-67
2023/05/12 10:04:56;;;;;;;4.32;1.45;;;;;;;22.85;28.67;97892.75;10566202;28;20048;-67
2023/05/12 10:10:21;;;;;;;2.58;1.58;;;;;;;23.10;28.59;97886.16;10581594;28;20055;-66
2023/05/12 10:15:42;;;;;;;3.95;1.20;;;;;;;22.90;28.73;97880.06;10566260;28;20044;-66
2023/05/12 10:21:04;;;;;;;2.87;1.20;;;;;;;23.57;27.87;97880.66;10580079;28;20048;-67
2023/05/12 10:26:26;;;;;;;5.00;1.63;;;;;;;22.54;29.00;97871.41;10585642;28;20043;-67
2023/05/12 10:31:48;;;;;;;4.67;1.50;;;;;;;23.06;29.61;97866.13;10589191;28;20055;-67
2023/05/12 10:37:10;;;;;;;2.95;1.38;;;;;;;24.23;27.85;97858.28;10588477;28;20298;-67
2023/05/12 10:42:41;;;;;;;2.00;1.33;;;;;;;24.55;27.25;97865.91;10587375;28;20062;-67
2023/05/12 10:48:05;;;;;;;2.67;1.85;;;;;;;23.84;26.61;97861.94;10587878;28;20051;-68
2023/05/12 10:53:27;;;;;;;3.05;1.30;;;;;;;22.90;28.21;97848.75;10587869;28;20089;-68
2023/05/12 10:59:18;;;;;;;3.30;1.38;;;;;;;22.03;29.53;97858.13;10575227;28;20089;-66
2023/05/12 11:04:48;;;;;;;5.57;1.52;;;;;;;20.87;30.62;97867.09;10572606;28;20059;-67
2023/05/12 11:10:10;;;;;;;2.78;1.10;;;;;;;19.78;32.45;97873.59;10587301;28;20378;-67
2023/05/12 11:15:33;;;;;;;3.17;1.25;;;;;;;19.19;33.92;97873.63;10585846;28;20185;-67
2023/05/12 11:20:54;;;;;;;2.63;1.45;;;;;;;19.45;34.14;97863.25;10571786;28;20044;-67
2023/05/12 11:26:17;;;;;;;2.28;1.40;;;;;;;20.77;33.12;97858.28;10586455;28;20044;-67
2023/05/12 11:31:39;;;;;;;2.33;1.17;;;;;;;22.84;30.52;97848.63;10585588;28;20489;-67
2023/05/12 11:37:02;;;;;;;4.57;1.10;;;;;;;23.01;29.16;97843.97;10584432;28;20039;-67
2023/05/12 11:42:23;;;;;;;3.10;1.17;;;;;;;22.17;30.23;97853.50;10571768;28;20036;-67
2023/05/12 11:47:45;;;;;;;2.83;1.20;;;;;;;22.45;30.47;97847.75;10570669;28;20051;-67
2023/05/12 11:53:13;;;;;;;4.90;1.20;;;;;;;22.90;30.38;97848.75;10584844;28;20036;-67
2023/05/12 11:58:34;;;;;;;2.55;0.98;;;;;;;23.90;28.65;97854.19;10584910;28;20047;-66
2023/05/12 12:03:55;;;;;;;3.40;1.40;;;;;;;23.17;28.33;97857.81;10585221;28;20043;-67
2023/05/12 12:09:17;;;;;;;4.63;1.13;;;;;;;21.93;29.46;97847.94;10585311;28;20094;-67
2023/05/12 12:14:40;;;;;;;3.85;1.45;;;;;;;21.05;31.31;97861.22;10569707;28;20497;-66
2023/05/12 12:20:01;;;;;;;2.15;1.23;;;;;;;20.62;32.39;97854.31;10584659;28;20131;-67
2023/05/12 12:25:22;;;;;;;3.22;1.05;;;;;;;21.01;32.28;97864.66;10584459;28;20039;-67
2023/05/12 12:30:43;;;;;;;3.35;1.33;;;;;;;21.59;32.21;97862.00;10584631;28;20079;-67
2023/05/12 12:36:04;;;;;;;1.33;1.00;;;;;;;21.67;31.98;97861.47;10584010;28;20130;-66
2023/05/12 12:41:25;;;;;;;4.53;1.35;;;;;;;20.63;33.32;97872.03;10555186;28;20374;-67
2023/05/12 12:46:46;;;;;;;4.35;1.17;;;;;;;20.13;34.59;97866.22;10583449;28;20036;-66
2023/05/12 12:52:06;;;;;;;5.03;1.52;;;;;;;20.18;35.17;97870.66;10567779;28;20092;-66
2023/05/12 12:57:27;;;;;;;4.15;1.17;;;;;;;20.32;34.84;97873.19;10582948;28;20035;-67
2023/05/12 13:02:49;;;;;;;4.22;1.30;;;;;;;20.92;34.32;97867.91;10583238;28;20059;-67
2023/05/12 13:08:10;;;;;;;2.75;1.10;;;;;;;21.10;34.17;97871.28;10581588;28;20110;-67
2023/05/12 13:13:31;;;;;;;1.92;1.15;;;;;;;21.42;34.01;97860.84;10567835;28;20036;-67
2023/05/12 13:18:53;;;;;;;3.17;1.00;;;;;;;21.74;32.94;97871.63;10581145;28;20048;-67
2023/05/12 13:24:14;;;;;;;3.75;1.20;;;;;;;21.28;32.75;97888.13;10581545;28;20054;-67
2023/05/12 13:29:35;;;;;;;2.92;1.33;;;;;;;20.77;33.79;97887.38;10580988;28;20409;-66
2023/05/12 13:34:57;;;;;;;5.13;1.30;;;;;;;20.47;34.05;97875.84;10580680;28;20439;-67
2023/05/12 13:40:18;;;;;;;3.03;1.27;;;;;;;20.41;34.53;97891.91;10581604;28;20047;-66
2023/05/12 13:45:39;;;;;;;1.60;1.20;;;;;;;20.41;34.76;97869.94;10581749;28;20044;-67
2023/05/12 13:51:00;;;;;;;4.10;1.17;;;;;;;20.48;33.51;97882.97;10581792;28;20047;-66
2023/05/12 13:56:21;;;;;;;1.85;0.98;;;;;;;20.47;32.46;97875.13;10580337;28;20046;-66
2023/05/12 14:01:43;;;;;;;1.58;1.13;;;;;;;20.38;33.43;97871.28;10571568;28;20044;-67
2023/05/12 14:07:04;;;;;;;2.25;1.20;;;;;;;20.69;33.30;97864.44;10574936;28;20068;-67
2023/05/12 14:12:28;;;;;;;2.35;1.40;;;;;;;21.01;33.22;97863.94;10590090;28;20051;-67
2023/05/12 14:17:49;;;;;;;1.92;1.15;;;;;;;20.92;32.79;97865.81;10588918;28;20044;-67
2023/05/12 14:23:11;;;;;;;4.22;1.30;;;;;;;20.12;33.53;97857.00;10574228;28;20048;-67
2023/05/12 14:28:32;;;;;;;2.28;1.30;;;;;;;19.41;35.02;97861.00;10574400;28;20074;-66
2023/05/12 14:33:54;;;;;;;2.70;1.30;;;;;;;19.34;35.67;97861.44;10588295;28;20489;-66
2023/05/12 14:39:16;;;;;;;6.43;1.50;;;;;;;19.06;37.98;97887.34;10588490;28;20122;-66
2023/05/12 14:44:37;;;;;;;2.78;1.20;;;;;;;18.67;41.30;97888.00;10574097;28;20370;-67
2023/05/12 14:49:59;;;;;;;2.47;1.20;;;;;;;18.55;42.68;97890.34;10588357;28;20104;-67
2023/05/12 14:55:20;;;;;;;3.55;1.10;;;;;;;18.45;42.84;97895.63;10588480;28;20496;-67
2023/05/12 15:00:41;;;;;;;1.95;0.90;;;;;;;18.25;42.91;97898.38;10587148;28;20144;-67
2023/05/12 15:06:02;;;;;;;2.80;1.10;;;;;;;18.20;42.00;97919.34;10587947;28;20090;-67
2023/05/12 15:11:26;;;;;;;3.17;1.25;;;;;;;18.26;41.68;97897.72;10585616;28;20074;-68
2023/05/12 15:16:47;;;;;;;3.55;1.20;;;;;;;18.34;41.48;97897.31;10586619;28;20044;-67
2023/05/12 15:22:08;;;;;;;2.90;1.17;;;;;;;18.45;41.03;97901.28;10587163;28;20062;-67
2023/05/12 15:27:33;;;;;;;1.73;0.82;;;;;;;18.16;40.55;97905.06;10586955;28;20036;-67
2023/05/12 15:32:54;;;;;;;1.42;0.80;;;;;;;17.91;40.66;97903.34;10572011;28;20047;-67
2023/05/12 15:38:14;;;;;;;4.28;1.25;;;;;;;17.74;40.17;97907.56;10585401;28;20039;-67
2023/05/12 15:43:37;;;;;;;3.75;0.93;;;;;;;17.46;40.28;97907.06;10586548;28;20040;-67
2023/05/12 15:48:58;;;;;;;3.22;1.20;;;;;;;17.43;40.58;97908.34;10585785;28;20048;-67
2023/05/12 15:54:20;;;;;;;4.63;1.00;;;;;;;17.36;39.80;97910.19;10571042;28;20060;-67
2023/05/12 15:59:41;;;;;;;2.05;0.90;;;;;;;17.38;39.51;97918.75;10570690;28;20063;-67
2023/05/12 16:05:01;;;;;;;2.83;1.00;;;;;;;17.33;39.26;97919.94;10584742;28;20063;-67
2023/05/12 16:10:22;;;;;;;1.60;0.80;;;;;;;17.39;39.16;97920.19;10584332;28;20071;-67
2023/05/12 16:15:42;;;;;;;4.55;1.10;;;;;;;17.23;38.96;97913.13;10569956;28;20067;-67
2023/05/12 16:21:04;;;;;;;2.80;1.42;;;;;;;17.21;39.60;97916.56;10569891;28;20035;-68
2023/05/12 16:26:25;;;;;;;2.70;1.00;;;;;;;17.36;39.67;97915.09;10584479;28;20067;-67
2023/05/12 16:31:49;;;;;;;2.00;1.05;;;;;;;17.31;39.71;97925.50;10584125;28;20557;-68
2023/05/12 16:37:09;;;;;;;3.45;0.90;;;;;;;17.10;40.43;97928.78;10583316;28;20044;-68
2023/05/12 16:42:30;;;;;;;3.22;1.15;;;;;;;16.77;40.72;97943.47;10584164;28;20127;-68
2023/05/12 16:47:51;;;;;;;4.05;1.00;;;;;;;16.49;41.49;97951.28;10554484;28;20062;-68
2023/05/12 16:53:11;;;;;;;2.83;1.20;;;;;;;16.35;42.08;97945.00;10568593;28;20063;-67
2023/05/12 16:58:32;;;;;;;3.15;1.00;;;;;;;16.14;42.45;97937.66;10583678;28;20120;-67
2023/05/12 17:03:53;;;;;;;2.42;0.82;;;;;;;15.81;42.88;97932.50;10582256;28;20078;-67
2023/05/12 17:09:13;;;;;;;2.55;1.40;;;;;;;15.73;43.83;97936.38;10568106;28;20406;-68
2023/05/12 17:14:34;;;;;;;2.28;1.30;;;;;;;15.70;44.26;97943.25;10581878;28;20114;-67
2023/05/12 17:19:55;;;;;;;2.40;1.33;;;;;;;15.58;44.78;97942.59;10581768;28;20043;-67
2023/05/12 17:25:19;;;;;;;2.97;1.20;;;;;;;15.49;44.88;97946.34;10581637;28;20123;-68
2023/05/12 17:30:41;;;;;;;1.75;1.00;;;;;;;15.38;45.19;97952.81;10567483;28;20116;-67
2023/05/12 17:36:03;;;;;;;1.90;1.05;;;;;;;15.26;45.55;97946.56;10581935;28;20067;-67
2023/05/12 17:41:32;;;;;;;1.90;0.93;;;;;;;15.11;46.27;97964.75;10582015;28;20473;-68
2023/05/12 17:46:52;;;;;;;1.27;1.05;;;;;;;14.94;46.57;97962.41;10582144;28;20059;-67
2023/05/12 17:52:13;;;;;;;2.95;1.20;;;;;;;14.85;46.93;97973.22;10581699;28;20100;-67
2023/05/12 17:57:34;;;;;;;3.50;1.00;;;;;;;14.71;47.29;97969.66;10580830;28;20119;-67
2023/05/12 18:02:55;;;;;;;3.15;1.00;;;;;;;14.56;47.71;97981.44;10580888;28;20107;-68
2023/05/12 18:08:16;;;;;;;2.97;1.30;;;;;;;14.50;48.01;97992.34;10566797;28;20051;-67
2023/05/12 18:13:37;;;;;;;3.53;1.35;;;;;;;14.27;48.72;97984.69;10580628;28;20116;-67
2023/05/12 18:18:58;;;;;;;3.78;1.40;;;;;;;14.01;49.42;97984.66;10580183;28;20114;-68
2023/05/12 18:24:19;;;;;;;3.17;1.15;;;;;;;13.87;49.69;97997.84;10566201;28;20165;-67
2023/05/12 18:29:39;;;;;;;3.28;1.33;;;;;;;13.80;50.02;97996.06;10581048;28;20083;-68
2023/05/12 18:35:01;;;;;;;5.35;1.40;;;;;;;13.83;50.13;97996.91;10581006;28;20035;-67
2023/05/12 18:40:21;;;;;;;3.50;1.33;;;;;;;13.71;50.59;98019.38;10581023;28;20485;-68
2023/05/12 18:45:42;;;;;;;2.40;1.20;;;;;;;13.68;50.68;98026.91;10581631;28;20063;-67
2023/05/12 18:51:03;;;;;;;1.38;1.13;;;;;;;13.71;50.78;98039.00;10588852;28;20515;-68
2023/05/12 18:56:23;;;;;;;3.42;1.40;;;;;;;13.67;50.83;98038.75;10588440;28;20128;-67
2023/05/12 19:01:44;;;;;;;1.70;1.10;;;;;;;13.63;51.14;98030.81;10587329;28;20119;-67
2023/05/12 19:07:08;;;;;;;3.95;1.25;;;;;;;13.58;51.21;98029.09;10587525;28;20086;-68
2023/05/12 19:12:29;;;;;;;4.03;1.85;;;;;;;13.51;51.58;98046.94;10587980;28;20051;-68
2023/05/12 19:17:50;;;;;;;2.67;1.52;;;;;;;13.46;51.73;98045.94;10587715;28;20180;-68
2023/05/12 19:23:11;;;;;;;3.13;1.55;;;;;;;13.42;51.93;98048.50;10588393;28;20120;-68
2023/05/12 19:28:31;;;;;;;2.83;1.80;;;;;;;13.35;52.38;98059.94;10572338;28;20542;-67
2023/05/12 19:33:52;;;;;;;3.15;1.73;;;;;;;13.20;52.89;98072.34;10586478;28;20062;-66
2023/05/12 19:39:12;;;;;;;2.40;1.48;;;;;;;13.04;52.93;98069.25;10587379;28;20556;-67
2023/05/12 19:44:33;;;;;;;3.28;1.90;;;;;;;12.93;53.65;98083.19;10586244;28;20119;-67
2023/05/12 19:49:54;;;;;;;5.00;1.95;;;;;;;12.73;54.34;98086.16;10571426;28;20111;-68
2023/05/12 19:55:15;;;;;;;2.95;1.60;;;;;;;12.70;54.42;98084.56;10570858;28;20111;-67
2023/05/12 20:00:37;;;;;;;4.78;1.95;;;;;;;12.62;54.91;98086.84;10584293;28;20047;-67
2023/05/12 20:05:59;;;;;;;3.10;1.80;;;;;;;12.58;55.21;98100.59;10570971;28;20070;-68
2023/05/12 20:11:21;;;;;;;4.63;1.60;;;;;;;12.68;55.73;98097.72;10584493;28;20078;-67
2023/05/12 20:16:41;;;;;;;5.03;2.45;;;;;;;12.78;55.52;98103.97;10584388;28;20115;-68
2023/05/12 20:22:02;;;;;;;4.32;1.77;;;;;;;12.71;55.21;98097.25;10569666;28;20149;-67
2023/05/12 20:27:22;;;;;;;3.63;1.65;;;;;;;12.76;55.55;98101.78;10584856;28;20529;-67
2023/05/12 20:32:44;;;;;;;5.40;1.95;;;;;;;12.85;55.67;98081.38;10584131;28;20050;-67
2023/05/12 20:38:05;;;;;;;5.45;2.13;;;;;;;12.89;55.35;98089.28;10569428;28;20043;-67
2023/05/12 20:43:26;;;;;;;4.28;1.98;;;;;;;12.84;55.17;98082.69;10584676;28;20079;-68
2023/05/12 20:48:47;;;;;;;2.50;1.75;;;;;;;12.72;55.21;98067.91;10569334;28;20119;-67
2023/05/12 20:54:07;;;;;;;3.83;1.80;;;;;;;12.73;55.56;98082.63;10568808;28;20114;-68
2023/05/12 20:59:28;;;;;;;4.43;2.20;;;;;;;12.70;55.58;98095.03;10568203;28;20040;-68
2023/05/12 21:04:49;;;;;;;3.45;1.90;;;;;;;12.63;55.68;98101.59;10583323;28;20039;-68
2023/05/12 21:10:10;;;;;;;3.60;1.80;;;;;;;12.61;55.71;98107.78;10552838;28;20066;-68
2023/05/12 21:15:31;;;;;;;4.95;2.30;;;;;;;12.55;55.86;98107.41;10582912;28;20036;-67
2023/05/12 21:20:51;;;;;;;4.45;2.17;;;;;;;12.46;56.19;98111.00;10567869;28;20504;-67
2023/05/12 21:26:12;;;;;;;3.60;1.98;;;;;;;12.57;56.41;98111.06;10553400;28;20186;-67
2023/05/12 21:31:32;;;;;;;2.85;1.85;;;;;;;12.59;56.40;98104.88;10581411;28;20131;-67
2023/05/12 21:36:53;;;;;;;2.95;1.75;;;;;;;12.52;56.64;98111.38;10582261;28;20074;-68
2023/05/12 21:42:14;;;;;;;2.85;1.73;;;;;;;12.56;56.83;98114.47;10581174;28;20089;-68
2023/05/12 21:47:34;;;;;;;5.85;1.77;;;;;;;12.59;56.94;98113.25;10580944;28;20111;-67
2023/05/12 21:52:55;;;;;;;3.08;1.90;;;;;;;12.65;56.98;98110.13;10581903;28;20118;-68
2023/05/12 21:58:16;;;;;;;3.92;1.95;;;;;;;12.66;56.95;98111.59;10580905;28;20110;-68
2023/05/12 22:03:37;;;;;;;2.47;1.42;;;;;;;12.72;57.01;98115.50;10581651;28;20123;-67
2023/05/12 22:08:58;;;;;;;3.38;1.98;;;;;;;12.75;56.74;98119.19;10581704;28;20119;-68
2023/05/12 22:14:19;;;;;;;4.72;1.90;;;;;;;12.64;56.56;98117.78;10566765;28;20071;-67
2023/05/12 22:19:40;;;;;;;6.50;1.98;;;;;;;12.66;56.66;98112.34;10581437;28;20069;-67
2023/05/12 22:25:01;;;;;;;3.42;1.73;;;;;;;12.61;56.89;98114.13;10588906;28;20059;-67
2023/05/12 22:30:22;;;;;;;3.50;1.98;;;;;;;12.69;57.27;98104.78;10589071;28;20062;-67
2023/05/12 22:35:43;;;;;;;3.45;1.90;;;;;;;12.72;57.16;98106.38;10589378;28;20123;-67
2023/05/12 22:41:04;;;;;;;4.25;1.80;;;;;;;12.70;56.77;98109.78;10589100;28;20063;-67
2023/05/12 22:46:25;;;;;;;3.17;2.30;;;;;;;12.66;57.24;98108.81;10589141;28;20074;-68
2023/05/12 22:51:46;;;;;;;3.03;1.85;;;;;;;12.77;57.61;98106.06;10588900;28;20067;-68
2023/05/12 22:57:06;;;;;;;3.92;2.10;;;;;;;12.84;56.86;98105.13;10587728;28;20063;-68
2023/05/12 23:02:27;;;;;;;4.15;1.95;;;;;;;12.81;56.97;98103.50;10558823;28;20115;-68
2023/05/12 23:07:47;;;;;;;4.68;1.83;;;;;;;12.79;57.08;98108.97;10588114;28;20043;-68
2023/05/12 23:13:08;;;;;;;3.28;2.38;;;;;;;12.74;56.62;98106.50;10588104;28;20048;-68
2023/05/12 23:18:28;;;;;;;4.15;2.03;;;;;;;12.58;56.92;98095.00;10587760;28;20466;-68
2023/05/12 23:23:49;;;;;;;3.88;1.73;;;;;;;12.55;57.08;98102.53;10587602;28;20067;-67
2023/05/12 23:29:10;;;;;;;7.68;2.17;;;;;;;12.57;57.27;98094.28;10587143;28;20115;-67
2023/05/12 23:34:30;;;;;;;3.10;1.70;;;;;;;12.57;57.36;98090.72;10585300;28;20123;-68
2023/05/12 23:39:51;;;;;;;3.22;2.05;;;;;;;12.59;57.28;98086.00;10571649;28;20492;-68
2023/05/12 23:45:11;;;;;;;3.47;1.73;;;;;;;12.66;57.48;98089.94;10571481;28;20446;-67
2023/05/12 23:50:32;;;;;;;4.43;1.95;;;;;;;12.61;57.29;98097.31;10586452;28;20118;-68
2023/05/12 23:55:52;;;;;;;2.85;1.90;;;;;;;12.59;57.26;98093.66;10585724;28;20110;-68
